sensor_id;sensor_type;location;lat;lon;timestamp;P1;durP1;ratioP1;P2;durP2;ratioP2
53903;SDS011;39812;52.430;16.936;2022-12-07T00:01:20;21.27;;;9.77;;
53903;SDS011;39812;52.430;16.936;2022-12-07T00:03:51;22.35;;;8.50;;
53903;SDS011;39812;52.430;16.936;2022-12-07T00:06:18;21.27;;;7.60;;
53903;SDS011;39812;52.430;16.936;2022-12-07T00:08:44;19.90;;;7.63;;
53903;SDS011;39812;52.430;16.936;2022-12-07T00:11:12;16.10;;;7.72;;
53903;SDS011;39812;52.430;16.936;2022-12-07T00:13:42;17.17;;;6.65;;
53903;SDS011;39812;52.430;16.936;2022-12-07T00:16:09;21.73;;;8.00;;
53903;SDS011;39812;52.430;16.936;2022-12-07T00:18:37;30.83;;;8.57;;
53903;SDS011;39812;52.430;16.936;2022-12-07T00:21:08;20.48;;;8.30;;
53903;SDS011;39812;52.430;16.936;2022-12-07T00:23:35;22.40;;;8.98;;
53903;SDS011;39812;52.430;16.936;2022-12-07T00:26:07;20.70;;;8.38;;
53903;SDS011;39812;52.430;16.936;2022-12-07T00:28:35;27.27;;;9.85;;
53903;SDS011;39812;52.430;16.936;2022-12-07T00:31:04;27.38;;;10.48;;
53903;SDS011;39812;52.430;16.936;2022-12-07T00:33:32;16.58;;;8.25;;
53903;SDS011;39812;52.430;16.936;2022-12-07T00:35:59;22.63;;;9.07;;
53903;SDS011;39812;52.430;16.936;2022-12-07T00:38:27;20.50;;;7.90;;
53903;SDS011;39812;52.430;16.936;2022-12-07T00:40:57;21.02;;;8.45;;
53903;SDS011;39812;52.430;16.936;2022-12-07T00:43:25;29.15;;;11.93;;
53903;SDS011;39812;52.430;16.936;2022-12-07T00:45:51;21.50;;;9.18;;
53903;SDS011;39812;52.430;16.936;2022-12-07T00:48:17;24.88;;;10.15;;
53903;SDS011;39812;52.430;16.936;2022-12-07T00:50:43;28.10;;;10.73;;
53903;SDS011;39812;52.430;16.936;2022-12-07T00:53:09;25.88;;;10.52;;
53903;SDS011;39812;52.430;16.936;2022-12-07T00:55:35;27.27;;;11.10;;
53903;SDS011;39812;52.430;16.936;2022-12-07T00:58:01;26.10;;;9.80;;
53903;SDS011;39812;52.430;16.936;2022-12-07T01:00:26;25.67;;;8.93;;
53903;SDS011;39812;52.430;16.936;2022-12-07T01:02:52;28.95;;;9.80;;
53903;SDS011;39812;52.430;16.936;2022-12-07T01:05:18;31.15;;;10.23;;
53903;SDS011;39812;52.430;16.936;2022-12-07T01:07:44;26.90;;;9.85;;
53903;SDS011;39812;52.430;16.936;2022-12-07T01:10:11;21.45;;;10.52;;
53903;SDS011;39812;52.430;16.936;2022-12-07T01:12:36;22.75;;;9.00;;
53903;SDS011;39812;52.430;16.936;2022-12-07T01:15:02;22.38;;;10.20;;
53903;SDS011;39812;52.430;16.936;2022-12-07T01:17:29;26.90;;;11.20;;
53903;SDS011;39812;52.430;16.936;2022-12-07T01:19:54;21.80;;;10.55;;
53903;SDS011;39812;52.430;16.936;2022-12-07T01:22:20;20.48;;;9.95;;
53903;SDS011;39812;52.430;16.936;2022-12-07T01:24:45;27.33;;;10.20;;
53903;SDS011;39812;52.430;16.936;2022-12-07T01:27:12;21.88;;;10.40;;
53903;SDS011;39812;52.430;16.936;2022-12-07T01:29:38;23.23;;;10.38;;
53903;SDS011;39812;52.430;16.936;2022-12-07T01:32:04;23.60;;;12.20;;
53903;SDS011;39812;52.430;16.936;2022-12-07T01:34:30;18.30;;;9.57;;
53903;SDS011;39812;52.430;16.936;2022-12-07T01:36:55;22.88;;;9.75;;
53903;SDS011;39812;52.430;16.936;2022-12-07T01:39:21;19.52;;;8.82;;
53903;SDS011;39812;52.430;16.936;2022-12-07T01:41:47;19.48;;;8.77;;
53903;SDS011;39812;52.430;16.936;2022-12-07T01:46:55;21.05;;;9.18;;
53903;SDS011;39812;52.430;16.936;2022-12-07T01:51:47;18.90;;;9.27;;
53903;SDS011;39812;52.430;16.936;2022-12-07T01:54:16;22.42;;;8.73;;
53903;SDS011;39812;52.430;16.936;2022-12-07T01:56:47;16.58;;;7.30;;
53903;SDS011;39812;52.430;16.936;2022-12-07T01:59:17;17.05;;;7.80;;
53903;SDS011;39812;52.430;16.936;2022-12-07T02:01:44;16.67;;;7.05;;
53903;SDS011;39812;52.430;16.936;2022-12-07T02:04:10;15.60;;;8.00;;
53903;SDS011;39812;52.430;16.936;2022-12-07T02:06:37;15.95;;;8.02;;
53903;SDS011;39812;52.430;16.936;2022-12-07T02:09:03;19.52;;;8.35;;
53903;SDS011;39812;52.430;16.936;2022-12-07T02:11:29;14.23;;;6.32;;
53903;SDS011;39812;52.430;16.936;2022-12-07T02:13:55;16.58;;;8.73;;
53903;SDS011;39812;52.430;16.936;2022-12-07T02:16:25;14.32;;;6.70;;
53903;SDS011;39812;52.430;16.936;2022-12-07T02:19:17;14.43;;;6.82;;
53903;SDS011;39812;52.430;16.936;2022-12-07T02:28:07;13.23;;;6.15;;
53903;SDS011;39812;52.430;16.936;2022-12-07T02:30:44;13.85;;;7.97;;
53903;SDS011;39812;52.430;16.936;2022-12-07T02:33:17;15.93;;;7.35;;
53903;SDS011;39812;52.430;16.936;2022-12-07T02:35:59;12.30;;;5.63;;
53903;SDS011;39812;52.430;16.936;2022-12-07T02:41:15;17.73;;;7.35;;
53903;SDS011;39812;52.430;16.936;2022-12-07T02:43:52;14.23;;;6.43;;
53903;SDS011;39812;52.430;16.936;2022-12-07T02:46:21;15.90;;;7.25;;
53903;SDS011;39812;52.430;16.936;2022-12-07T02:48:53;13.82;;;6.28;;
53903;SDS011;39812;52.430;16.936;2022-12-07T02:51:21;13.65;;;6.22;;
53903;SDS011;39812;52.430;16.936;2022-12-07T02:53:47;10.80;;;5.85;;
53903;SDS011;39812;52.430;16.936;2022-12-07T02:59:25;15.10;;;5.85;;
53903;SDS011;39812;52.430;16.936;2022-12-07T03:02:15;13.20;;;6.78;;
53903;SDS011;39812;52.430;16.936;2022-12-07T03:07:54;12.70;;;5.82;;
53903;SDS011;39812;52.430;16.936;2022-12-07T03:10:40;13.82;;;6.68;;
53903;SDS011;39812;52.430;16.936;2022-12-07T03:18:38;12.15;;;6.05;;
53903;SDS011;39812;52.430;16.936;2022-12-07T03:21:08;13.10;;;6.68;;
53903;SDS011;39812;52.430;16.936;2022-12-07T03:23:39;13.50;;;5.95;;
53903;SDS011;39812;52.430;16.936;2022-12-07T03:26:06;11.48;;;6.65;;
53903;SDS011;39812;52.430;16.936;2022-12-07T03:28:36;11.15;;;6.22;;
53903;SDS011;39812;52.430;16.936;2022-12-07T03:31:10;11.38;;;6.20;;
53903;SDS011;39812;52.430;16.936;2022-12-07T03:36:41;10.43;;;5.25;;
53903;SDS011;39812;52.430;16.936;2022-12-07T03:41:50;12.60;;;4.28;;
53903;SDS011;39812;52.430;16.936;2022-12-07T03:44:17;10.02;;;5.68;;
53903;SDS011;39812;52.430;16.936;2022-12-07T03:49:37;7.87;;;4.90;;
53903;SDS011;39812;52.430;16.936;2022-12-07T03:55:04;11.23;;;6.03;;
53903;SDS011;39812;52.430;16.936;2022-12-07T03:57:53;12.90;;;5.15;;
53903;SDS011;39812;52.430;16.936;2022-12-07T04:00:22;11.65;;;4.72;;
53903;SDS011;39812;52.430;16.936;2022-12-07T04:02:48;11.48;;;5.40;;
53903;SDS011;39812;52.430;16.936;2022-12-07T04:05:16;9.70;;;4.97;;
53903;SDS011;39812;52.430;16.936;2022-12-07T04:07:42;10.35;;;5.80;;
53903;SDS011;39812;52.430;16.936;2022-12-07T04:10:08;8.65;;;4.95;;
53903;SDS011;39812;52.430;16.936;2022-12-07T04:12:34;8.65;;;5.75;;
53903;SDS011;39812;52.430;16.936;2022-12-07T04:14:59;8.18;;;4.93;;
53903;SDS011;39812;52.430;16.936;2022-12-07T04:17:25;10.27;;;5.65;;
53903;SDS011;39812;52.430;16.936;2022-12-07T04:19:50;11.40;;;5.85;;
53903;SDS011;39812;52.430;16.936;2022-12-07T04:22:16;11.98;;;5.82;;
53903;SDS011;39812;52.430;16.936;2022-12-07T04:24:42;9.77;;;5.28;;
53903;SDS011;39812;52.430;16.936;2022-12-07T04:27:07;11.10;;;5.85;;
53903;SDS011;39812;52.430;16.936;2022-12-07T04:29:33;10.40;;;5.88;;
53903;SDS011;39812;52.430;16.936;2022-12-07T04:31:58;9.48;;;5.53;;
53903;SDS011;39812;52.430;16.936;2022-12-07T04:34:24;10.70;;;5.95;;
53903;SDS011;39812;52.430;16.936;2022-12-07T04:36:50;9.95;;;5.53;;
53903;SDS011;39812;52.430;16.936;2022-12-07T04:39:19;9.13;;;5.07;;
53903;SDS011;39812;52.430;16.936;2022-12-07T04:41:56;10.18;;;5.50;;
53903;SDS011;39812;52.430;16.936;2022-12-07T04:44:23;12.50;;;6.20;;
53903;SDS011;39812;52.430;16.936;2022-12-07T04:46:50;13.35;;;6.25;;
53903;SDS011;39812;52.430;16.936;2022-12-07T04:49:16;11.95;;;5.90;;
53903;SDS011;39812;52.430;16.936;2022-12-07T04:51:42;13.27;;;7.05;;
53903;SDS011;39812;52.430;16.936;2022-12-07T04:54:08;11.85;;;6.90;;
53903;SDS011;39812;52.430;16.936;2022-12-07T04:56:34;15.30;;;7.65;;
53903;SDS011;39812;52.430;16.936;2022-12-07T04:59:00;14.77;;;7.85;;
53903;SDS011;39812;52.430;16.936;2022-12-07T05:01:25;14.32;;;6.45;;
53903;SDS011;39812;52.430;16.936;2022-12-07T05:03:51;14.02;;;6.88;;
53903;SDS011;39812;52.430;16.936;2022-12-07T05:06:17;15.75;;;6.97;;
53903;SDS011;39812;52.430;16.936;2022-12-07T05:08:43;15.52;;;8.75;;
53903;SDS011;39812;52.430;16.936;2022-12-07T05:11:08;18.48;;;8.27;;
53903;SDS011;39812;52.430;16.936;2022-12-07T05:13:54;15.35;;;7.63;;
53903;SDS011;39812;52.430;16.936;2022-12-07T05:16:20;14.07;;;7.03;;
53903;SDS011;39812;52.430;16.936;2022-12-07T05:18:46;16.67;;;7.80;;
53903;SDS011;39812;52.430;16.936;2022-12-07T05:21:11;13.27;;;7.40;;
53903;SDS011;39812;52.430;16.936;2022-12-07T05:23:37;16.20;;;8.05;;
53903;SDS011;39812;52.430;16.936;2022-12-07T05:26:02;11.77;;;6.50;;
53903;SDS011;39812;52.430;16.936;2022-12-07T05:28:28;14.80;;;8.13;;
53903;SDS011;39812;52.430;16.936;2022-12-07T05:30:53;13.65;;;7.70;;
53903;SDS011;39812;52.430;16.936;2022-12-07T05:33:19;16.92;;;8.95;;
53903;SDS011;39812;52.430;16.936;2022-12-07T05:35:44;18.10;;;7.93;;
53903;SDS011;39812;52.430;16.936;2022-12-07T05:38:10;14.23;;;8.10;;
53903;SDS011;39812;52.430;16.936;2022-12-07T05:40:36;17.13;;;9.55;;
53903;SDS011;39812;52.430;16.936;2022-12-07T05:43:02;13.43;;;7.40;;
53903;SDS011;39812;52.430;16.936;2022-12-07T05:45:27;20.55;;;8.95;;
53903;SDS011;39812;52.430;16.936;2022-12-07T05:47:53;18.45;;;8.63;;
53903;SDS011;39812;52.430;16.936;2022-12-07T05:50:19;14.35;;;7.53;;
53903;SDS011;39812;52.430;16.936;2022-12-07T05:52:44;17.50;;;7.78;;
53903;SDS011;39812;52.430;16.936;2022-12-07T05:55:10;18.02;;;8.38;;
53903;SDS011;39812;52.430;16.936;2022-12-07T05:57:35;17.77;;;9.18;;
53903;SDS011;39812;52.430;16.936;2022-12-07T06:00:01;16.38;;;8.30;;
53903;SDS011;39812;52.430;16.936;2022-12-07T06:02:28;14.52;;;8.00;;
53903;SDS011;39812;52.430;16.936;2022-12-07T06:04:54;16.08;;;7.25;;
53903;SDS011;39812;52.430;16.936;2022-12-07T06:07:19;17.70;;;8.82;;
53903;SDS011;39812;52.430;16.936;2022-12-07T06:09:45;15.23;;;7.10;;
53903;SDS011;39812;52.430;16.936;2022-12-07T06:12:11;18.30;;;8.38;;
53903;SDS011;39812;52.430;16.936;2022-12-07T06:14:56;15.60;;;7.22;;
53903;SDS011;39812;52.430;16.936;2022-12-07T06:17:22;15.07;;;7.55;;
53903;SDS011;39812;52.430;16.936;2022-12-07T06:19:48;17.60;;;8.55;;
53903;SDS011;39812;52.430;16.936;2022-12-07T06:22:13;16.40;;;8.23;;
53903;SDS011;39812;52.430;16.936;2022-12-07T06:24:41;13.95;;;7.90;;
53903;SDS011;39812;52.430;16.936;2022-12-07T06:27:07;16.60;;;8.02;;
53903;SDS011;39812;52.430;16.936;2022-12-07T06:29:33;13.50;;;6.93;;
53903;SDS011;39812;52.430;16.936;2022-12-07T06:31:58;14.20;;;6.53;;
53903;SDS011;39812;52.430;16.936;2022-12-07T06:34:25;9.30;;;4.75;;
53903;SDS011;39812;52.430;16.936;2022-12-07T06:36:52;17.60;;;7.93;;
53903;SDS011;39812;52.430;16.936;2022-12-07T06:39:20;12.73;;;5.82;;
53903;SDS011;39812;52.430;16.936;2022-12-07T06:41:47;12.75;;;6.63;;
53903;SDS011;39812;52.430;16.936;2022-12-07T06:44:14;16.88;;;7.70;;
53903;SDS011;39812;52.430;16.936;2022-12-07T06:46:39;13.18;;;5.57;;
53903;SDS011;39812;52.430;16.936;2022-12-07T06:49:05;9.73;;;5.65;;
53903;SDS011;39812;52.430;16.936;2022-12-07T06:51:32;13.77;;;7.05;;
53903;SDS011;39812;52.430;16.936;2022-12-07T06:54:00;12.63;;;5.68;;
53903;SDS011;39812;52.430;16.936;2022-12-07T06:56:25;15.10;;;7.15;;
53903;SDS011;39812;52.430;16.936;2022-12-07T06:58:51;17.48;;;7.25;;
53903;SDS011;39812;52.430;16.936;2022-12-07T07:01:17;12.75;;;5.70;;
53903;SDS011;39812;52.430;16.936;2022-12-07T07:03:43;14.48;;;7.38;;
53903;SDS011;39812;52.430;16.936;2022-12-07T07:06:10;13.50;;;6.95;;
53903;SDS011;39812;52.430;16.936;2022-12-07T07:08:37;14.52;;;7.45;;
53903;SDS011;39812;52.430;16.936;2022-12-07T07:11:03;11.77;;;6.82;;
53903;SDS011;39812;52.430;16.936;2022-12-07T07:13:29;12.27;;;6.45;;
53903;SDS011;39812;52.430;16.936;2022-12-07T07:15:55;10.75;;;6.03;;
53903;SDS011;39812;52.430;16.936;2022-12-07T07:18:21;12.73;;;6.18;;
53903;SDS011;39812;52.430;16.936;2022-12-07T07:20:47;14.48;;;6.18;;
53903;SDS011;39812;52.430;16.936;2022-12-07T07:23:13;10.50;;;6.00;;
53903;SDS011;39812;52.430;16.936;2022-12-07T07:25:38;11.07;;;6.28;;
53903;SDS011;39812;52.430;16.936;2022-12-07T07:28:04;8.98;;;4.45;;
53903;SDS011;39812;52.430;16.936;2022-12-07T07:30:30;12.35;;;6.18;;
53903;SDS011;39812;52.430;16.936;2022-12-07T07:33:00;12.38;;;6.20;;
53903;SDS011;39812;52.430;16.936;2022-12-07T07:35:27;12.50;;;7.32;;
53903;SDS011;39812;52.430;16.936;2022-12-07T07:37:54;14.40;;;7.18;;
53903;SDS011;39812;52.430;16.936;2022-12-07T07:40:20;13.13;;;6.75;;
53903;SDS011;39812;52.430;16.936;2022-12-07T07:42:49;9.15;;;5.88;;
53903;SDS011;39812;52.430;16.936;2022-12-07T07:45:18;9.25;;;5.20;;
53903;SDS011;39812;52.430;16.936;2022-12-07T07:47:46;8.85;;;4.55;;
53903;SDS011;39812;52.430;16.936;2022-12-07T07:50:11;8.30;;;4.13;;
53903;SDS011;39812;52.430;16.936;2022-12-07T07:52:37;9.70;;;3.97;;
53903;SDS011;39812;52.430;16.936;2022-12-07T07:55:03;11.80;;;5.70;;
53903;SDS011;39812;52.430;16.936;2022-12-07T07:57:29;10.00;;;4.20;;
53903;SDS011;39812;52.430;16.936;2022-12-07T07:59:55;11.00;;;5.50;;
53903;SDS011;39812;52.430;16.936;2022-12-07T08:02:21;7.70;;;4.38;;
53903;SDS011;39812;52.430;16.936;2022-12-07T08:04:47;7.22;;;4.22;;
53903;SDS011;39812;52.430;16.936;2022-12-07T08:07:13;6.55;;;4.50;;
53903;SDS011;39812;52.430;16.936;2022-12-07T08:09:40;7.30;;;4.35;;
53903;SDS011;39812;52.430;16.936;2022-12-07T08:12:06;7.15;;;4.32;;
53903;SDS011;39812;52.430;16.936;2022-12-07T08:14:32;10.23;;;4.82;;
53903;SDS011;39812;52.430;16.936;2022-12-07T08:16:58;7.90;;;3.35;;
53903;SDS011;39812;52.430;16.936;2022-12-07T08:19:24;7.03;;;4.32;;
53903;SDS011;39812;52.430;16.936;2022-12-07T08:21:50;7.97;;;4.22;;
53903;SDS011;39812;52.430;16.936;2022-12-07T08:24:15;6.35;;;4.13;;
53903;SDS011;39812;52.430;16.936;2022-12-07T08:26:41;10.25;;;4.57;;
53903;SDS011;39812;52.430;16.936;2022-12-07T08:29:07;9.60;;;4.95;;
53903;SDS011;39812;52.430;16.936;2022-12-07T08:31:33;9.40;;;4.70;;
53903;SDS011;39812;52.430;16.936;2022-12-07T08:33:58;10.85;;;5.60;;
53903;SDS011;39812;52.430;16.936;2022-12-07T08:36:24;12.05;;;5.75;;
53903;SDS011;39812;52.430;16.936;2022-12-07T08:38:50;8.40;;;6.03;;
53903;SDS011;39812;52.430;16.936;2022-12-07T08:41:16;15.93;;;7.60;;
53903;SDS011;39812;52.430;16.936;2022-12-07T08:43:42;13.18;;;6.95;;
53903;SDS011;39812;52.430;16.936;2022-12-07T08:46:12;14.43;;;6.90;;
53903;SDS011;39812;52.430;16.936;2022-12-07T08:48:52;16.23;;;6.78;;
53903;SDS011;39812;52.430;16.936;2022-12-07T08:51:20;10.93;;;5.63;;
53903;SDS011;39812;52.430;16.936;2022-12-07T08:53:47;12.70;;;6.95;;
53903;SDS011;39812;52.430;16.936;2022-12-07T08:56:14;13.93;;;7.30;;
53903;SDS011;39812;52.430;16.936;2022-12-07T08:58:40;12.35;;;7.20;;
53903;SDS011;39812;52.430;16.936;2022-12-07T09:01:06;15.48;;;7.20;;
53903;SDS011;39812;52.430;16.936;2022-12-07T09:03:31;13.57;;;7.63;;
53903;SDS011;39812;52.430;16.936;2022-12-07T09:05:57;14.95;;;7.40;;
53903;SDS011;39812;52.430;16.936;2022-12-07T09:08:25;14.70;;;8.18;;
53903;SDS011;39812;52.430;16.936;2022-12-07T09:10:56;21.73;;;9.10;;
53903;SDS011;39812;52.430;16.936;2022-12-07T09:13:21;19.58;;;9.15;;
53903;SDS011;39812;52.430;16.936;2022-12-07T09:15:47;16.02;;;8.40;;
53903;SDS011;39812;52.430;16.936;2022-12-07T09:18:13;13.50;;;7.10;;
53903;SDS011;39812;52.430;16.936;2022-12-07T09:20:38;21.17;;;9.80;;
53903;SDS011;39812;52.430;16.936;2022-12-07T09:23:05;17.45;;;9.35;;
53903;SDS011;39812;52.430;16.936;2022-12-07T09:25:31;14.95;;;7.80;;
53903;SDS011;39812;52.430;16.936;2022-12-07T09:27:58;17.15;;;9.45;;
53903;SDS011;39812;52.430;16.936;2022-12-07T09:30:24;20.25;;;9.82;;
53903;SDS011;39812;52.430;16.936;2022-12-07T09:32:55;19.65;;;9.93;;
53903;SDS011;39812;52.430;16.936;2022-12-07T09:35:21;19.48;;;8.95;;
53903;SDS011;39812;52.430;16.936;2022-12-07T09:37:48;24.58;;;12.43;;
53903;SDS011;39812;52.430;16.936;2022-12-07T09:40:14;20.80;;;11.27;;
53903;SDS011;39812;52.430;16.936;2022-12-07T09:42:42;20.92;;;11.73;;
53903;SDS011;39812;52.430;16.936;2022-12-07T09:45:34;25.08;;;13.40;;
53903;SDS011;39812;52.430;16.936;2022-12-07T09:48:00;21.60;;;10.18;;
53903;SDS011;39812;52.430;16.936;2022-12-07T09:50:28;22.17;;;10.98;;
53903;SDS011;39812;52.430;16.936;2022-12-07T09:53:08;25.67;;;11.82;;
53903;SDS011;39812;52.430;16.936;2022-12-07T09:55:39;22.30;;;10.85;;
53903;SDS011;39812;52.430;16.936;2022-12-07T09:58:08;21.02;;;11.55;;
53903;SDS011;39812;52.430;16.936;2022-12-07T10:00:41;20.77;;;10.35;;
53903;SDS011;39812;52.430;16.936;2022-12-07T10:03:07;24.23;;;11.32;;
53903;SDS011;39812;52.430;16.936;2022-12-07T10:05:37;25.25;;;12.73;;
53903;SDS011;39812;52.430;16.936;2022-12-07T10:08:07;28.02;;;12.52;;
53903;SDS011;39812;52.430;16.936;2022-12-07T10:10:35;25.35;;;12.10;;
53903;SDS011;39812;52.430;16.936;2022-12-07T10:13:06;24.73;;;11.75;;
53903;SDS011;39812;52.430;16.936;2022-12-07T10:18:48;23.23;;;12.00;;
53903;SDS011;39812;52.430;16.936;2022-12-07T10:21:17;20.17;;;11.35;;
53903;SDS011;39812;52.430;16.936;2022-12-07T10:24:02;24.23;;;11.88;;
53903;SDS011;39812;52.430;16.936;2022-12-07T10:26:46;22.60;;;11.68;;
53903;SDS011;39812;52.430;16.936;2022-12-07T10:29:23;24.40;;;12.15;;
53903;SDS011;39812;52.430;16.936;2022-12-07T10:32:01;27.73;;;14.30;;
53903;SDS011;39812;52.430;16.936;2022-12-07T10:34:30;24.27;;;11.93;;
53903;SDS011;39812;52.430;16.936;2022-12-07T10:37:07;23.77;;;12.05;;
53903;SDS011;39812;52.430;16.936;2022-12-07T10:39:40;27.45;;;12.00;;
53903;SDS011;39812;52.430;16.936;2022-12-07T10:42:23;21.30;;;11.07;;
53903;SDS011;39812;52.430;16.936;2022-12-07T10:47:52;21.75;;;11.23;;
53903;SDS011;39812;52.430;16.936;2022-12-07T10:53:27;24.40;;;12.73;;
53903;SDS011;39812;52.430;16.936;2022-12-07T10:58:44;22.15;;;11.73;;
53903;SDS011;39812;52.430;16.936;2022-12-07T11:06:58;26.23;;;11.20;;
53903;SDS011;39812;52.430;16.936;2022-12-07T11:20:14;31.58;;;14.57;;
53903;SDS011;39812;52.430;16.936;2022-12-07T11:22:46;26.73;;;14.68;;
53903;SDS011;39812;52.430;16.936;2022-12-07T11:30:42;28.42;;;13.02;;
53903;SDS011;39812;52.430;16.936;2022-12-07T11:33:21;24.88;;;10.90;;
53903;SDS011;39812;52.430;16.936;2022-12-07T11:38:44;23.50;;;10.77;;
53903;SDS011;39812;52.430;16.936;2022-12-07T11:41:23;26.23;;;12.50;;
53903;SDS011;39812;52.430;16.936;2022-12-07T11:46:52;30.20;;;11.65;;
53903;SDS011;39812;52.430;16.936;2022-12-07T11:52:30;25.83;;;12.75;;
53903;SDS011;39812;52.430;16.936;2022-12-07T12:03:40;29.38;;;12.73;;
53903;SDS011;39812;52.430;16.936;2022-12-07T12:06:15;37.08;;;16.92;;
53903;SDS011;39812;52.430;16.936;2022-12-07T12:22:37;32.58;;;14.80;;
53903;SDS011;39812;52.430;16.936;2022-12-07T12:25:07;30.20;;;14.27;;
53903;SDS011;39812;52.430;16.936;2022-12-07T12:27:45;26.70;;;13.20;;
53903;SDS011;39812;52.430;16.936;2022-12-07T12:33:11;27.75;;;12.73;;
53903;SDS011;39812;52.430;16.936;2022-12-07T12:35:46;28.83;;;13.93;;
53903;SDS011;39812;52.430;16.936;2022-12-07T12:44:08;28.70;;;12.07;;
53903;SDS011;39812;52.430;16.936;2022-12-07T12:51:47;21.40;;;10.75;;
53903;SDS011;39812;52.430;16.936;2022-12-07T12:56:59;17.27;;;8.88;;
53903;SDS011;39812;52.430;16.936;2022-12-07T12:59:36;20.83;;;10.77;;
53903;SDS011;39812;52.430;16.936;2022-12-07T13:07:47;16.92;;;8.73;;
53903;SDS011;39812;52.430;16.936;2022-12-07T13:12:59;15.60;;;8.43;;
53903;SDS011;39812;52.430;16.936;2022-12-07T13:15:44;16.90;;;9.80;;
53903;SDS011;39812;52.430;16.936;2022-12-07T13:21:01;15.40;;;8.63;;
53903;SDS011;39812;52.430;16.936;2022-12-07T13:37:24;6.32;;;4.68;;
53903;SDS011;39812;52.430;16.936;2022-12-07T13:39:58;8.73;;;5.75;;
53903;SDS011;39812;52.430;16.936;2022-12-07T13:44:52;8.18;;;4.47;;
53903;SDS011;39812;52.430;16.936;2022-12-07T13:47:41;10.57;;;6.05;;
53903;SDS011;39812;52.430;16.936;2022-12-07T13:52:58;6.72;;;4.60;;
53903;SDS011;39812;52.430;16.936;2022-12-07T13:55:25;6.88;;;3.75;;
53903;SDS011;39812;52.430;16.936;2022-12-07T13:57:52;6.10;;;3.75;;
53903;SDS011;39812;52.430;16.936;2022-12-07T14:05:26;8.15;;;5.28;;
53903;SDS011;39812;52.430;16.936;2022-12-07T14:13:28;8.68;;;4.93;;
53903;SDS011;39812;52.430;16.936;2022-12-07T14:15:53;7.78;;;4.03;;
53903;SDS011;39812;52.430;16.936;2022-12-07T14:18:26;8.75;;;4.72;;
53903;SDS011;39812;52.430;16.936;2022-12-07T14:21:03;9.00;;;5.50;;
53903;SDS011;39812;52.430;16.936;2022-12-07T14:23:36;8.20;;;4.70;;
53903;SDS011;39812;52.430;16.936;2022-12-07T14:26:08;7.10;;;4.72;;
53903;SDS011;39812;52.430;16.936;2022-12-07T14:28:38;7.05;;;4.90;;
53903;SDS011;39812;52.430;16.936;2022-12-07T14:31:11;10.25;;;5.10;;
53903;SDS011;39812;52.430;16.936;2022-12-07T14:33:41;7.85;;;4.45;;
53903;SDS011;39812;52.430;16.936;2022-12-07T14:36:11;11.10;;;5.35;;
53903;SDS011;39812;52.430;16.936;2022-12-07T14:38:38;7.32;;;4.90;;
53903;SDS011;39812;52.430;16.936;2022-12-07T14:41:04;10.88;;;6.10;;
53903;SDS011;39812;52.430;16.936;2022-12-07T14:43:56;9.10;;;5.28;;
53903;SDS011;39812;52.430;16.936;2022-12-07T14:46:22;9.50;;;5.65;;
53903;SDS011;39812;52.430;16.936;2022-12-07T14:48:47;7.88;;;4.45;;
53903;SDS011;39812;52.430;16.936;2022-12-07T14:51:13;10.82;;;6.13;;
53903;SDS011;39812;52.430;16.936;2022-12-07T14:53:40;6.85;;;4.78;;
53903;SDS011;39812;52.430;16.936;2022-12-07T14:56:09;11.18;;;5.90;;
53903;SDS011;39812;52.430;16.936;2022-12-07T14:58:34;9.75;;;6.07;;
53903;SDS011;39812;52.430;16.936;2022-12-07T15:01:00;8.77;;;5.38;;
53903;SDS011;39812;52.430;16.936;2022-12-07T15:03:26;9.43;;;6.82;;
53903;SDS011;39812;52.430;16.936;2022-12-07T15:05:52;9.95;;;6.70;;
53903;SDS011;39812;52.430;16.936;2022-12-07T15:08:17;12.95;;;5.88;;
53903;SDS011;39812;52.430;16.936;2022-12-07T15:10:43;10.10;;;6.57;;
53903;SDS011;39812;52.430;16.936;2022-12-07T15:13:09;10.85;;;5.88;;
53903;SDS011;39812;52.430;16.936;2022-12-07T15:15:53;11.57;;;6.90;;
53903;SDS011;39812;52.430;16.936;2022-12-07T15:18:20;11.25;;;6.07;;
53903;SDS011;39812;52.430;16.936;2022-12-07T15:20:46;11.07;;;5.72;;
53903;SDS011;39812;52.430;16.936;2022-12-07T15:23:12;9.02;;;6.38;;
53903;SDS011;39812;52.430;16.936;2022-12-07T15:25:41;10.48;;;6.50;;
53903;SDS011;39812;52.430;16.936;2022-12-07T15:30:39;8.10;;;5.55;;
53903;SDS011;39812;52.430;16.936;2022-12-07T15:33:07;10.82;;;5.18;;
53903;SDS011;39812;52.430;16.936;2022-12-07T15:35:33;8.05;;;5.00;;
53903;SDS011;39812;52.430;16.936;2022-12-07T15:37:58;9.73;;;6.20;;
53903;SDS011;39812;52.430;16.936;2022-12-07T15:40:24;9.52;;;5.70;;
53903;SDS011;39812;52.430;16.936;2022-12-07T15:42:49;9.32;;;5.00;;
53903;SDS011;39812;52.430;16.936;2022-12-07T15:45:15;6.93;;;4.28;;
53903;SDS011;39812;52.430;16.936;2022-12-07T15:47:41;11.07;;;6.32;;
53903;SDS011;39812;52.430;16.936;2022-12-07T15:50:11;9.30;;;5.72;;
53903;SDS011;39812;52.430;16.936;2022-12-07T15:52:38;10.27;;;6.18;;
53903;SDS011;39812;52.430;16.936;2022-12-07T15:55:04;9.88;;;5.40;;
53903;SDS011;39812;52.430;16.936;2022-12-07T15:57:34;10.23;;;6.47;;
53903;SDS011;39812;52.430;16.936;2022-12-07T16:00:02;10.55;;;5.97;;
53903;SDS011;39812;52.430;16.936;2022-12-07T16:02:29;12.73;;;5.65;;
53903;SDS011;39812;52.430;16.936;2022-12-07T16:04:55;11.13;;;5.63;;
53903;SDS011;39812;52.430;16.936;2022-12-07T16:07:20;10.10;;;6.03;;
53903;SDS011;39812;52.430;16.936;2022-12-07T16:09:46;8.85;;;5.05;;
53903;SDS011;39812;52.430;16.936;2022-12-07T16:12:13;7.80;;;4.20;;
53903;SDS011;39812;52.430;16.936;2022-12-07T16:14:39;12.38;;;5.65;;
53903;SDS011;39812;52.430;16.936;2022-12-07T16:17:05;7.65;;;5.07;;
53903;SDS011;39812;52.430;16.936;2022-12-07T16:19:32;6.38;;;3.58;;
53903;SDS011;39812;52.430;16.936;2022-12-07T16:21:59;7.20;;;4.95;;
53903;SDS011;39812;52.430;16.936;2022-12-07T16:24:25;6.85;;;4.78;;
53903;SDS011;39812;52.430;16.936;2022-12-07T16:26:51;7.00;;;4.25;;
53903;SDS011;39812;52.430;16.936;2022-12-07T16:29:18;5.13;;;3.38;;
53903;SDS011;39812;52.430;16.936;2022-12-07T16:31:44;6.28;;;3.67;;
53903;SDS011;39812;52.430;16.936;2022-12-07T16:34:11;10.80;;;6.03;;
53903;SDS011;39812;52.430;16.936;2022-12-07T16:36:36;13.27;;;6.43;;
53903;SDS011;39812;52.430;16.936;2022-12-07T16:39:02;10.07;;;6.07;;
53903;SDS011;39812;52.430;16.936;2022-12-07T16:41:29;9.38;;;4.85;;
53903;SDS011;39812;52.430;16.936;2022-12-07T16:43:54;11.93;;;7.03;;
53903;SDS011;39812;52.430;16.936;2022-12-07T16:46:20;13.32;;;6.32;;
53903;SDS011;39812;52.430;16.936;2022-12-07T16:48:45;10.65;;;7.07;;
53903;SDS011;39812;52.430;16.936;2022-12-07T16:51:12;8.55;;;5.25;;
53903;SDS011;39812;52.430;16.936;2022-12-07T16:53:39;12.25;;;5.88;;
53903;SDS011;39812;52.430;16.936;2022-12-07T16:56:10;11.43;;;5.90;;
53903;SDS011;39812;52.430;16.936;2022-12-07T16:58:36;11.95;;;5.70;;
53903;SDS011;39812;52.430;16.936;2022-12-07T17:01:12;9.85;;;5.82;;
53903;SDS011;39812;52.430;16.936;2022-12-07T17:03:39;13.20;;;6.35;;
53903;SDS011;39812;52.430;16.936;2022-12-07T17:06:16;13.23;;;6.75;;
53903;SDS011;39812;52.430;16.936;2022-12-07T17:08:47;12.00;;;5.93;;
53903;SDS011;39812;52.430;16.936;2022-12-07T17:11:14;12.30;;;5.20;;